Terminal Aerodrome Forecast
Issued by NWS

Home | Current Version | Previous Version | Text Only | Print | Product List | Glossary On
Versions: 1 2 3 4 5 6 7 8 9 10 11 12 13
000
FTUS44 KLZK 232300
TAFHOT
TAF
KHOT 232320Z 2400/2424 12008KT P6SM SCT035 BKN050
     FM240300 13006KT P6SM VCTS BKN035CB OVC050
      TEMPO 2409/2413 5SM -TSRA BR BKN015 OVC035CB
     FM241600 16010G18KT P6SM VCTS BKN035CB OVC080 PROB30 2418/2424
      3SM TSRA BR BKN015CB OVC025=

USA.gov is the U.S. government's official web portal to all federal, state and local government web resources and services.